Time;durP1;ratioP1;P1;durP2;ratioP2;P2;SDS_P1;SDS_P2;PMS_P1;PMS_P2;Temp;Humidity;BMP_temperature;BMP_pressure;BME280_temperature;BME280_humidity;BME280_pressure;Samples;Min_cycle;Max_cycle;Signal;HPM_P1;HPM_P2
2022/11/28 00:00:58;;;;;;;6.83;4.17;;;;;;;6.34;100.00;100919.31;4996346;28;20117;-83
2022/11/28 00:03:24;;;;;;;7.97;3.72;;;;;;;6.38;100.00;100919.31;4995951;28;20034;-83
2022/11/28 00:05:50;;;;;;;7.63;3.72;;;;;;;6.39;100.00;100913.31;4995534;28;20026;-83
2022/11/28 00:08:15;;;;;;;7.10;3.70;;;;;;;6.42;100.00;100906.44;4996261;28;20096;-83
2022/11/28 00:10:41;;;;;;;4.90;3.20;;;;;;;6.43;100.00;100913.34;4995753;28;20479;-83
2022/11/28 00:13:06;;;;;;;4.63;3.00;;;;;;;6.45;100.00;100900.44;4996041;28;20077;-84
2022/11/28 00:15:32;;;;;;;6.22;3.38;;;;;;;6.47;100.00;100899.56;4996144;28;20030;-84
2022/11/28 00:17:57;;;;;;;6.10;3.40;;;;;;;6.48;100.00;100900.44;4995663;28;20052;-83
2022/11/28 00:20:23;;;;;;;5.77;3.37;;;;;;;6.49;100.00;100897.88;4995737;28;20581;-83
2022/11/28 00:22:48;;;;;;;4.85;3.33;;;;;;;6.53;100.00;100898.72;4996125;28;20044;-83
2022/11/28 00:25:13;;;;;;;5.63;3.28;;;;;;;6.57;100.00;100890.16;4995372;28;20109;-83
2022/11/28 00:27:39;;;;;;;9.73;3.93;;;;;;;6.66;100.00;100884.16;4995756;28;20030;-83
2022/11/28 00:30:05;;;;;;;7.18;3.70;;;;;;;6.64;100.00;100897.03;4995416;28;20026;-83
2022/11/28 00:32:30;;;;;;;5.80;3.60;;;;;;;6.68;100.00;100894.47;4995061;28;20022;-83
2022/11/28 00:34:55;;;;;;;5.30;3.17;;;;;;;6.70;100.00;100897.91;4995786;28;20034;-83
2022/11/28 00:37:21;;;;;;;6.00;3.67;;;;;;;6.73;100.00;100895.34;4995825;28;20105;-83
2022/11/28 00:39:46;;;;;;;7.17;4.20;;;;;;;6.74;100.00;100882.44;4994896;28;20042;-83
2022/11/28 00:42:11;;;;;;;7.87;3.80;;;;;;;6.76;100.00;100879.84;4995528;28;20379;-83
2022/11/28 00:44:36;;;;;;;6.13;3.77;;;;;;;6.79;100.00;100893.63;4995966;28;20029;-83
2022/11/28 00:47:02;;;;;;;6.63;3.40;;;;;;;6.82;100.00;100876.41;4995150;28;20370;-83
2022/11/28 00:49:27;;;;;;;4.80;3.20;;;;;;;6.90;100.00;100888.47;4995466;28;20022;-83
2022/11/28 00:51:52;;;;;;;7.47;3.80;;;;;;;6.86;100.00;100876.44;4995431;28;20030;-83
2022/11/28 00:54:18;;;;;;;6.07;3.65;;;;;;;6.88;100.00;100874.69;4994933;28;20018;-83
2022/11/28 00:56:43;;;;;;;6.07;3.40;;;;;;;6.91;100.00;100879.88;4995525;28;20030;-83
2022/11/28 00:59:08;;;;;;;5.90;3.63;;;;;;;6.93;100.00;100878.16;4995297;28;20026;-83
2022/11/28 01:01:36;;;;;;;5.82;3.10;;;;;;;6.94;100.00;100873.84;4994801;28;20026;-83
2022/11/28 01:04:05;;;;;;;5.47;3.28;;;;;;;6.95;100.00;100867.81;4994860;28;20553;-84
2022/11/28 01:06:36;;;;;;;5.50;3.17;;;;;;;6.97;100.00;100873.00;4995295;28;20026;-83
2022/11/28 01:09:08;;;;;;;4.55;3.00;;;;;;;6.97;100.00;100876.44;4994916;28;20026;-83
2022/11/28 01:11:37;;;;;;;5.47;3.45;;;;;;;6.96;100.00;100872.13;4995364;28;20104;-83
2022/11/28 01:14:02;;;;;;;5.50;3.13;;;;;;;6.99;100.00;100879.88;4994272;28;20026;-83
2022/11/28 01:16:29;;;;;;;5.87;3.43;;;;;;;7.01;100.00;100878.16;4995240;28;20027;-83
2022/11/28 01:18:55;;;;;;;6.45;3.15;;;;;;;7.00;100.00;100873.00;4995282;28;20026;-83
2022/11/28 01:21:21;;;;;;;4.80;3.15;;;;;;;7.00;100.00;100876.44;4994193;28;20081;-83
2022/11/28 01:23:46;;;;;;;5.40;3.00;;;;;;;7.00;100.00;100865.25;4995111;28;20441;-83
2022/11/28 01:26:20;;;;;;;4.50;2.92;;;;;;;6.99;100.00;100866.97;4994678;28;20026;-83
2022/11/28 01:28:47;;;;;;;4.57;2.85;;;;;;;6.99;100.00;100876.44;4994392;28;20061;-83
2022/11/28 01:31:16;;;;;;;5.72;3.17;;;;;;;6.98;100.00;100869.56;4994309;28;20049;-83
2022/11/28 01:33:41;;;;;;;4.65;2.78;;;;;;;6.99;100.00;100879.00;4994836;28;20105;-83
2022/11/28 01:36:08;;;;;;;3.50;2.60;;;;;;;6.95;100.00;100871.28;4993645;28;20491;-83
2022/11/28 01:38:34;;;;;;;4.07;2.65;;;;;;;6.97;100.00;100875.59;4994241;28;20050;-83
2022/11/28 01:41:00;;;;;;;3.15;2.42;;;;;;;6.97;100.00;100875.59;4994653;28;20022;-83
2022/11/28 01:43:25;;;;;;;2.90;2.53;;;;;;;6.95;100.00;100875.56;4993553;28;20495;-83
2022/11/28 01:45:51;;;;;;;3.37;2.53;;;;;;;6.93;100.00;100875.59;4994930;28;20064;-83
2022/11/28 01:48:21;;;;;;;4.38;2.70;;;;;;;6.93;100.00;100879.88;4994460;28;20089;-84
2022/11/28 01:50:50;;;;;;;5.20;2.85;;;;;;;6.91;100.00;100877.28;4994088;28;20060;-83
2022/11/28 01:53:16;;;;;;;4.68;2.70;;;;;;;6.89;100.00;100876.44;4994123;28;20030;-83
2022/11/28 01:55:50;;;;;;;3.83;2.90;;;;;;;6.88;100.00;100873.84;4994400;28;20068;-83
2022/11/28 01:58:16;;;;;;;3.28;2.50;;;;;;;6.86;100.00;100870.41;4993316;28;20018;-83
2022/11/28 02:00:41;;;;;;;3.97;2.50;;;;;;;6.82;100.00;100866.97;4994466;28;20073;-84
2022/11/28 02:03:14;;;;;;;4.43;2.73;;;;;;;6.82;100.00;100863.53;4993171;28;20038;-83
2022/11/28 02:05:40;;;;;;;4.53;2.40;;;;;;;6.81;100.00;100870.41;4994317;28;20027;-84
2022/11/28 02:08:07;;;;;;;4.03;2.60;;;;;;;6.79;100.00;100861.81;4993779;28;20033;-84
2022/11/28 02:10:48;;;;;;;4.72;2.67;;;;;;;6.79;100.00;100859.22;4993275;28;20022;-84
2022/11/28 02:13:42;;;;;;;2.65;2.20;;;;;;;6.76;100.00;100856.63;4993613;28;20490;-84
2022/11/28 02:16:26;;;;;;;4.30;2.88;;;;;;;6.75;100.00;100857.53;4989218;28;20082;-84
2022/11/28 02:19:31;;;;;;;4.00;2.70;;;;;;;6.74;100.00;100858.38;4993237;28;20023;-84
2022/11/28 02:22:28;;;;;;;3.88;2.78;;;;;;;6.73;100.00;100849.75;4994072;28;20077;-84
2022/11/28 02:25:15;;;;;;;5.72;2.90;;;;;;;6.74;100.00;100848.06;4985839;28;20137;-84
2022/11/28 02:28:02;;;;;;;2.88;2.28;;;;;;;6.73;100.00;100852.34;4993935;28;20391;-84
2022/11/28 02:30:52;;;;;;;3.03;2.20;;;;;;;6.73;100.00;100854.06;4993850;28;20463;-84
2022/11/28 02:33:37;;;;;;;2.92;2.20;;;;;;;6.73;100.00;100854.06;4992693;28;20109;-85
2022/11/28 02:36:14;;;;;;;3.60;2.40;;;;;;;6.73;100.00;100844.59;4993816;28;20030;-84
2022/11/28 02:38:50;;;;;;;3.10;2.33;;;;;;;6.72;100.00;100850.63;4992921;28;20042;-84
2022/11/28 02:41:41;;;;;;;2.58;2.30;;;;;;;6.71;100.00;100851.47;4993827;28;20164;-85
2022/11/28 02:44:14;;;;;;;3.67;2.50;;;;;;;6.70;100.00;100852.34;4993202;28;20034;-84
2022/11/28 02:46:45;;;;;;;3.40;2.50;;;;;;;6.68;100.00;100851.50;4992807;28;20026;-85
2022/11/28 02:49:21;;;;;;;2.72;2.40;;;;;;;6.67;100.00;100852.34;4993587;28;20037;-84
2022/11/28 02:51:54;;;;;;;3.05;2.03;;;;;;;6.67;100.00;100851.47;4993786;28;20022;-84
2022/11/28 02:54:21;;;;;;;3.25;2.22;;;;;;;6.65;100.00;100846.31;4992348;28;20069;-85
2022/11/28 02:56:50;;;;;;;2.92;2.22;;;;;;;6.65;100.00;100846.31;4992748;28;20062;-85
2022/11/28 02:59:28;;;;;;;3.28;2.20;;;;;;;6.65;100.00;100842.00;4993376;28;20478;-85
2022/11/28 03:01:54;;;;;;;2.58;2.20;;;;;;;6.61;100.00;100837.72;4993278;28;20037;-85
2022/11/28 03:04:32;;;;;;;3.05;2.20;;;;;;;6.61;100.00;100837.72;4992823;28;20026;-84
2022/11/28 03:07:07;;;;;;;2.63;2.00;;;;;;;6.62;100.00;100836.88;4992632;28;20022;-84
2022/11/28 03:09:57;;;;;;;2.10;1.90;;;;;;;6.61;100.00;100835.16;4993593;28;20073;-84
2022/11/28 03:12:40;;;;;;;1.95;1.80;;;;;;;6.61;100.00;100830.00;4993029;28;20030;-84
2022/11/28 03:15:08;;;;;;;2.33;1.90;;;;;;;6.61;100.00;100822.25;4992251;28;20072;-85
2022/11/28 03:17:43;;;;;;;2.45;2.10;;;;;;;6.60;100.00;100825.69;4993553;28;20034;-85
2022/11/28 03:20:42;;;;;;;2.65;2.10;;;;;;;6.59;100.00;100834.28;4993148;28;20065;-84
2022/11/28 03:23:13;;;;;;;2.20;2.00;;;;;;;6.59;100.00;100834.28;4992877;28;20034;-85
2022/11/28 03:25:54;;;;;;;1.85;1.75;;;;;;;6.59;100.00;100828.25;4993288;28;20121;-84
2022/11/28 03:28:25;;;;;;;2.40;2.20;;;;;;;6.59;100.00;100829.13;4994008;28;20035;-85
2022/11/28 03:30:59;;;;;;;3.30;2.38;;;;;;;6.60;100.00;100827.41;4997246;28;20097;-85
2022/11/28 03:33:28;;;;;;;2.30;2.00;;;;;;;6.59;100.00;100823.09;4998050;28;20049;-85
2022/11/28 03:36:01;;;;;;;2.38;2.00;;;;;;;6.59;100.00;100820.50;4997588;28;20113;-85
2022/11/28 03:38:36;;;;;;;2.80;1.80;;;;;;;6.59;100.00;100821.41;4996458;28;20121;-84
2022/11/28 03:41:11;;;;;;;3.83;2.40;;;;;;;6.63;100.00;100824.81;4996712;28;20122;-85
2022/11/28 03:43:43;;;;;;;3.15;2.35;;;;;;;6.59;100.00;100823.97;4996564;28;20030;-84
2022/11/28 03:46:13;;;;;;;3.40;2.50;;;;;;;6.61;100.00;100824.84;4996701;28;20085;-85
2022/11/28 03:48:42;;;;;;;3.08;2.40;;;;;;;6.58;100.00;100817.09;4995929;28;20102;-84
2022/11/28 03:51:19;;;;;;;3.83;2.45;;;;;;;6.57;100.00;100828.25;4996750;28;20026;-84
2022/11/28 03:54:03;;;;;;;;;;;;;;;6.56;100.00;100825.69;4997096;28;20064;-85
2022/11/28 03:56:51;;;;;;;3.30;2.60;;;;;;;6.55;100.00;100823.97;4996142;28;19914;-84
2022/11/28 03:59:22;;;;;;;3.03;2.30;;;;;;;6.55;100.00;100829.97;4996081;28;20030;-84
2022/11/28 04:02:09;;;;;;;3.53;2.50;;;;;;;6.56;100.00;100828.28;4996236;28;20122;-84
2022/11/28 04:04:52;;;;;;;3.17;2.40;;;;;;;6.58;100.00;100831.72;4995938;28;20037;-85
2022/11/28 04:07:28;;;;;;;3.70;2.65;;;;;;;6.63;100.00;100830.88;4996058;28;20018;-85
2022/11/28 04:10:20;;;;;;;4.18;2.70;;;;;;;6.60;100.00;100837.72;4995682;28;20038;-84
2022/11/28 04:13:17;;;;;;;4.35;2.78;;;;;;;6.61;100.00;100836.84;4996434;28;20385;-85
2022/11/28 04:16:04;;;;;;;5.07;2.53;;;;;;;6.57;100.00;100833.41;4996377;28;20042;-85
2022/11/28 04:18:41;;;;;;;3.25;2.40;;;;;;;6.55;100.00;100835.13;4995721;28;20025;-85
2022/11/28 04:21:19;;;;;;;4.97;2.60;;;;;;;6.54;100.00;100829.97;4995956;28;20558;-85
2022/11/28 04:23:47;;;;;;;3.03;2.22;;;;;;;6.53;100.00;100828.25;4996216;28;20030;-84
2022/11/28 04:26:34;;;;;;;2.83;2.42;;;;;;;6.55;100.00;100829.97;4995570;28;20030;-84
2022/11/28 04:29:03;;;;;;;2.83;2.08;;;;;;;6.53;100.00;100834.25;4995978;28;20042;-85
2022/11/28 04:31:31;;;;;;;2.22;1.90;;;;;;;6.54;100.00;100838.56;4995209;28;20430;-85
2022/11/28 04:34:01;;;;;;;2.22;2.03;;;;;;;6.55;100.00;100829.97;4995983;28;20026;-85
2022/11/28 04:36:29;;;;;;;2.58;2.00;;;;;;;6.55;100.00;100835.13;4995513;28;20120;-84
2022/11/28 04:38:57;;;;;;;2.35;2.00;;;;;;;6.53;100.00;100834.25;4994402;28;20050;-84
2022/11/28 04:41:29;;;;;;;2.50;2.00;;;;;;;6.54;100.00;100829.97;4995364;28;20428;-85
2022/11/28 04:44:35;;;;;;;2.15;1.95;;;;;;;6.52;100.00;100827.41;4995717;28;20031;-85
2022/11/28 04:47:01;;;;;;;2.92;2.17;;;;;;;6.54;100.00;100828.25;4994949;28;20468;-85
2022/11/28 04:49:28;;;;;;;2.13;1.90;;;;;;;6.54;100.00;100833.41;4995618;28;20033;-84
2022/11/28 04:52:05;;;;;;;3.10;2.20;;;;;;;6.58;100.00;100822.25;4995042;28;20070;-84
2022/11/28 04:55:15;;;;;;;2.95;2.33;;;;;;;6.56;100.00;100836.84;4995844;28;20053;-84
2022/11/28 04:57:47;;;;;;;2.22;2.03;;;;;;;6.56;100.00;100833.44;4962227;28;20475;-85
2022/11/28 05:00:17;;;;;;;2.00;1.83;;;;;;;6.57;100.00;100830.84;4994524;28;20117;-84
2022/11/28 05:02:44;;;;;;;2.40;2.20;;;;;;;6.58;100.00;100836.88;4995223;28;20096;-84
2022/11/28 05:05:20;;;;;;;3.60;2.30;;;;;;;6.55;100.00;100824.81;4995268;28;20038;-85
2022/11/28 05:07:45;;;;;;;3.50;2.60;;;;;;;6.54;100.00;100829.97;4994724;28;20419;-84
2022/11/28 05:10:12;;;;;;;2.83;2.40;;;;;;;6.54;100.00;100835.97;4995176;28;20065;-84
2022/11/28 05:12:37;;;;;;;2.90;2.25;;;;;;;6.55;100.00;100829.97;4995239;28;20040;-84
2022/11/28 05:15:04;;;;;;;2.58;2.20;;;;;;;6.56;100.00;100838.59;4994408;28;20519;-84
2022/11/28 05:17:29;;;;;;;2.25;2.00;;;;;;;6.57;100.00;100837.72;4995051;28;20483;-84
2022/11/28 05:19:55;;;;;;;2.17;1.98;;;;;;;6.57;100.00;100838.56;4994704;28;20061;-84
2022/11/28 05:22:20;;;;;;;2.40;2.17;;;;;;;6.60;100.00;100846.31;4993825;28;20464;-84
2022/11/28 05:24:45;;;;;;;2.57;2.20;;;;;;;6.59;100.00;100847.19;4995281;28;20030;-84
2022/11/28 05:27:10;;;;;;;2.20;2.00;;;;;;;6.60;100.00;100845.44;4993947;28;20054;-84
2022/11/28 05:29:36;;;;;;;2.10;1.90;;;;;;;6.61;100.00;100839.44;4994874;28;20026;-84
2022/11/28 05:32:02;;;;;;;2.20;2.00;;;;;;;6.62;100.00;100847.19;4994794;28;20368;-84
2022/11/28 05:34:29;;;;;;;3.17;2.40;;;;;;;6.61;100.00;100845.47;4993838;28;20125;-84
2022/11/28 05:36:54;;;;;;;2.33;2.05;;;;;;;6.61;100.00;100845.47;4994318;28;20105;-84
2022/11/28 05:39:19;;;;;;;2.33;2.13;;;;;;;6.64;100.00;100850.59;4994437;28;20125;-84
2022/11/28 05:41:44;;;;;;;2.30;2.10;;;;;;;6.64;100.00;100849.75;4993844;28;20133;-84
2022/11/28 05:44:10;;;;;;;2.10;1.88;;;;;;;6.65;100.00;100851.47;4994426;28;20500;-86
2022/11/28 05:46:35;;;;;;;2.38;2.08;;;;;;;6.65;100.00;100851.47;4994484;28;20023;-86
2022/11/28 05:49:00;;;;;;;2.40;2.13;;;;;;;6.64;100.00;100853.19;4994054;28;20113;-85
2022/11/28 05:51:26;;;;;;;2.88;2.40;;;;;;;6.63;100.00;100848.91;4993715;28;20042;-84
2022/11/28 05:53:51;;;;;;;2.63;2.30;;;;;;;6.63;100.00;100853.19;4994565;28;20026;-84
2022/11/28 05:56:18;;;;;;;2.38;2.17;;;;;;;6.64;100.00;100847.19;4993512;28;20034;-84
2022/11/28 05:58:44;;;;;;;2.30;2.10;;;;;;;6.66;100.00;100853.22;4994327;28;20038;-84
2022/11/28 06:01:13;;;;;;;2.40;2.20;;;;;;;6.65;100.00;100846.31;4994032;28;20467;-84
2022/11/28 06:03:38;;;;;;;3.03;2.40;;;;;;;6.67;100.00;100843.75;4993386;28;20530;-84
2022/11/28 06:06:09;;;;;;;3.35;2.22;;;;;;;6.68;100.00;100845.47;4993934;28;20160;-84
2022/11/28 06:08:35;;;;;;;3.72;2.30;;;;;;;6.68;100.00;100851.50;4994222;28;20026;-85
2022/11/28 06:11:00;;;;;;;3.20;2.43;;;;;;;6.68;100.00;100842.88;4993804;28;20033;-84
2022/11/28 06:13:26;;;;;;;2.87;2.20;;;;;;;6.68;100.00;100853.19;4993576;28;20485;-84
2022/11/28 06:15:52;;;;;;;2.35;2.15;;;;;;;6.68;100.00;100850.63;4994267;28;20048;-84
2022/11/28 06:18:17;;;;;;;2.35;2.10;;;;;;;6.68;100.00;100846.34;4993240;28;20022;-83
2022/11/28 06:20:42;;;;;;;2.20;2.00;;;;;;;6.69;100.00;100852.34;4994584;28;20029;-85
2022/11/28 06:23:07;;;;;;;2.20;2.00;;;;;;;6.69;100.00;100858.38;4996057;28;20120;-84
2022/11/28 06:25:33;;;;;;;2.20;2.00;;;;;;;6.69;100.00;100852.34;4994341;28;20060;-85
2022/11/28 06:27:58;;;;;;;2.63;2.10;;;;;;;6.69;100.00;100858.38;4994123;28;20073;-85
2022/11/28 06:30:24;;;;;;;2.53;2.20;;;;;;;6.70;100.00;100854.91;4992907;28;20041;-85
2022/11/28 06:32:49;;;;;;;2.40;2.20;;;;;;;6.70;100.00;100860.06;4993636;28;20491;-85
2022/11/28 06:35:14;;;;;;;2.55;2.13;;;;;;;6.71;100.00;100866.94;4993678;28;20026;-88
2022/11/28 06:37:40;;;;;;;1.80;1.70;;;;;;;6.70;100.00;100865.22;4993094;28;20566;-86
2022/11/28 06:40:05;;;;;;;2.10;1.90;;;;;;;6.71;100.00;100866.94;4993488;28;20042;-86
2022/11/28 06:42:33;;;;;;;2.20;2.00;;;;;;;6.72;100.00;100879.00;4993182;28;20086;-87
2022/11/28 06:44:58;;;;;;;2.47;2.28;;;;;;;6.73;100.00;100869.56;4992941;28;20478;-86
2022/11/28 06:47:23;;;;;;;2.40;2.20;;;;;;;6.72;100.00;100862.66;4993855;28;20030;-87
2022/11/28 06:49:48;;;;;;;2.20;2.00;;;;;;;6.72;100.00;100863.53;4993349;28;20056;-87
2022/11/28 06:52:14;;;;;;;2.30;2.10;;;;;;;6.72;100.00;100863.53;4992340;28;20034;-86
2022/11/28 06:54:39;;;;;;;3.08;2.40;;;;;;;6.77;100.00;100860.94;4993740;28;20028;-86
2022/11/28 06:57:04;;;;;;;2.67;2.47;;;;;;;6.72;100.00;100862.66;4993404;28;20049;-86
2022/11/28 06:59:33;;;;;;;2.50;2.20;;;;;;;6.73;100.00;100869.56;4992546;28;20037;-86
2022/11/28 07:02:01;;;;;;;2.30;2.10;;;;;;;6.73;100.00;100869.56;4993085;28;20034;-85
2022/11/28 07:04:29;;;;;;;2.50;2.25;;;;;;;6.73;100.00;100864.41;4992956;28;20038;-86
2022/11/28 07:07:03;;;;;;;2.25;2.05;;;;;;;6.73;100.00;100862.66;4992706;28;20386;-86
2022/11/28 07:09:29;;;;;;;2.00;1.90;;;;;;;6.72;100.00;100860.94;4993231;28;20034;-85
2022/11/28 07:12:06;;;;;;;2.22;2.03;;;;;;;6.77;100.00;100873.84;4993192;28;20026;-85
2022/11/28 07:14:32;;;;;;;1.90;1.80;;;;;;;6.77;100.00;100873.84;4992508;28;20022;-85
2022/11/28 07:16:57;;;;;;;2.03;1.83;;;;;;;6.79;100.00;100878.16;4993106;28;20033;-85
2022/11/28 07:19:23;;;;;;;1.77;1.67;;;;;;;6.79;100.00;100879.88;4993019;28;20034;-85
2022/11/28 07:21:49;;;;;;;1.92;1.80;;;;;;;6.79;100.00;100878.16;4992714;28;20034;-86
2022/11/28 07:24:15;;;;;;;1.70;1.60;;;;;;;6.79;100.00;100880.75;4993144;28;20173;-84
2022/11/28 07:26:41;;;;;;;1.95;1.80;;;;;;;6.80;100.00;100882.47;4992638;28;20033;-85
2022/11/28 07:29:06;;;;;;;2.17;2.00;;;;;;;6.81;100.00;100885.88;4992907;28;20026;-84
2022/11/28 07:31:32;;;;;;;2.28;2.00;;;;;;;6.81;100.00;100883.31;4993428;28;20049;-86
2022/11/28 07:34:00;;;;;;;2.28;2.08;;;;;;;6.80;100.00;100885.03;4992383;28;20066;-86
2022/11/28 07:36:26;;;;;;;2.22;2.03;;;;;;;6.82;100.00;100885.03;4993015;28;20426;-86
2022/11/28 07:38:57;;;;;;;2.20;2.00;;;;;;;6.83;100.00;100894.50;4993186;28;20101;-85
2022/11/28 07:41:23;;;;;;;2.00;1.80;;;;;;;6.84;100.00;100895.34;4992180;28;20034;-86
2022/11/28 07:43:49;;;;;;;2.00;1.90;;;;;;;6.85;100.00;100897.94;4992916;28;20022;-85
2022/11/28 07:46:16;;;;;;;1.90;1.80;;;;;;;6.85;100.00;100900.53;4993272;28;20101;-85
2022/11/28 07:48:42;;;;;;;1.80;1.70;;;;;;;6.86;100.00;100902.25;4992672;28;20054;-85
2022/11/28 07:51:13;;;;;;;2.27;2.07;;;;;;;6.86;100.00;100896.22;4992869;28;20062;-87
2022/11/28 07:53:39;;;;;;;2.67;2.00;;;;;;;6.86;100.00;100898.78;4988645;28;20026;-86
2022/11/28 07:56:13;;;;;;;3.03;2.00;;;;;;;6.88;100.00;100900.50;4992216;28;20029;-86
2022/11/28 07:58:39;;;;;;;2.38;2.10;;;;;;;6.88;100.00;100899.66;4993631;28;20022;-86
2022/11/28 08:01:19;;;;;;;2.30;2.10;;;;;;;6.90;100.00;100906.53;4992999;28;20032;-87
2022/11/28 08:03:45;;;;;;;3.10;2.70;;;;;;;6.91;100.00;100922.88;4992451;28;20036;-87
2022/11/28 08:06:11;;;;;;;3.03;2.60;;;;;;;6.92;100.00;100914.28;4992477;28;20026;-87
2022/11/28 08:08:36;;;;;;;2.63;2.40;;;;;;;6.93;100.00;100914.28;4992885;28;20015;-87
2022/11/28 08:11:04;;;;;;;2.33;2.10;;;;;;;6.94;100.00;100917.72;4992407;28;20276;-87
2022/11/28 08:13:30;;;;;;;2.50;2.20;;;;;;;6.95;100.00;100916.84;4992951;28;20022;-87
2022/11/28 08:15:55;;;;;;;2.17;1.90;;;;;;;6.94;100.00;100912.56;4995649;28;20025;-87
2022/11/28 08:18:21;;;;;;;2.13;1.92;;;;;;;6.94;100.00;100915.13;4996250;28;20026;-87
2022/11/28 08:20:46;;;;;;;2.00;1.85;;;;;;;6.94;100.00;100910.84;4996147;28;20057;-87
2022/11/28 08:23:11;;;;;;;2.13;1.92;;;;;;;6.96;100.00;100918.56;4994958;28;20034;-87
2022/11/28 08:25:37;;;;;;;2.47;2.20;;;;;;;6.95;100.00;100919.44;4996543;28;20030;-87
2022/11/28 08:28:02;;;;;;;2.50;2.30;;;;;;;6.98;100.00;100923.75;4996104;28;20034;-87
2022/11/28 08:30:28;;;;;;;2.25;2.00;;;;;;;6.97;100.00;100917.72;4995624;28;20026;-87
2022/11/28 08:32:53;;;;;;;2.30;2.10;;;;;;;7.00;100.00;100922.91;4996262;28;20564;-87
2022/11/28 08:35:18;;;;;;;2.45;2.25;;;;;;;7.01;100.00;100919.47;4995976;28;20027;-87
2022/11/28 08:37:44;;;;;;;2.95;2.00;;;;;;;7.04;100.00;100926.34;4994996;28;20383;-87
2022/11/28 08:40:09;;;;;;;2.30;2.10;;;;;;;7.05;100.00;100928.91;4995903;28;20085;-87
2022/11/28 08:42:35;;;;;;;1.80;1.70;;;;;;;7.08;100.00;100925.47;4995858;28;20030;-87
2022/11/28 08:45:00;;;;;;;2.20;2.00;;;;;;;7.10;100.00;100928.91;4995552;28;20023;-87
2022/11/28 08:47:25;;;;;;;2.10;1.90;;;;;;;7.11;100.00;100934.09;4995655;28;20034;-86
2022/11/28 08:49:51;;;;;;;1.97;1.87;;;;;;;7.12;100.00;100932.34;4996303;28;20026;-86
2022/11/28 08:52:16;;;;;;;1.80;1.70;;;;;;;7.14;100.00;100934.94;4994554;28;20026;-86
2022/11/28 08:54:42;;;;;;;2.60;2.20;;;;;;;7.15;100.00;100940.09;4995339;28;20038;-86
2022/11/28 08:57:08;;;;;;;2.30;2.10;;;;;;;7.14;100.00;100933.22;4995629;28;20387;-86
2022/11/28 08:59:33;;;;;;;2.20;2.00;;;;;;;7.15;100.00;100934.09;4995080;28;20479;-86
2022/11/28 09:01:58;;;;;;;1.80;1.70;;;;;;;7.18;100.00;100934.06;4995531;28;20054;-86
2022/11/28 09:04:23;;;;;;;1.70;1.60;;;;;;;7.19;100.00;100925.47;4994949;28;20033;-86
2022/11/28 09:06:49;;;;;;;2.00;1.80;;;;;;;7.19;100.00;100926.34;4995377;28;20479;-86
2022/11/28 09:09:15;;;;;;;1.93;1.80;;;;;;;7.22;100.00;100928.06;4997102;28;20440;-86
2022/11/28 09:11:40;;;;;;;2.10;1.90;;;;;;;7.23;100.00;100928.03;4997082;28;20022;-86
2022/11/28 09:14:06;;;;;;;1.85;1.75;;;;;;;7.23;100.00;100938.38;4994304;28;20027;-86
2022/11/28 09:16:31;;;;;;;1.70;1.60;;;;;;;7.26;100.00;100935.81;4995576;28;20085;-87
2022/11/28 09:18:58;;;;;;;1.50;1.40;;;;;;;7.28;100.00;100938.38;4995096;28;20026;-86
2022/11/28 09:21:24;;;;;;;2.25;1.90;;;;;;;7.30;100.00;100944.41;4994093;28;20033;-86
2022/11/28 09:23:54;;;;;;;2.10;1.90;;;;;;;7.32;100.00;100945.25;4995034;28;20093;-87
2022/11/28 09:26:21;;;;;;;2.50;2.00;;;;;;;7.34;100.00;100956.47;4994206;28;20045;-87
2022/11/28 09:28:47;;;;;;;2.10;1.88;;;;;;;7.34;100.00;100946.13;4995330;28;20030;-87
2022/11/28 09:31:15;;;;;;;1.73;1.63;;;;;;;7.36;100.00;100954.75;4994740;28;20025;-85
2022/11/28 09:33:41;;;;;;;1.80;1.70;;;;;;;7.36;100.00;100952.16;4994421;28;20035;-86
2022/11/28 09:36:09;;;;;;;2.03;1.93;;;;;;;7.37;100.00;100951.31;4994824;28;20037;-85
2022/11/28 09:38:35;;;;;;;1.67;1.58;;;;;;;7.40;100.00;100958.19;4994589;28;20042;-86
2022/11/28 09:41:02;;;;;;;1.73;1.63;;;;;;;7.40;100.00;100953.03;4994177;28;20030;-86
2022/11/28 09:43:36;;;;;;;1.75;1.50;;;;;;;7.41;100.00;100949.56;4994698;28;20026;-85
2022/11/28 09:46:07;;;;;;;2.53;2.05;;;;;;;7.41;100.00;100947.00;4994921;28;20022;-86
2022/11/28 09:48:37;;;;;;;2.40;2.13;;;;;;;7.42;100.00;100954.72;4993881;28;20034;-86
2022/11/28 09:51:31;;;;;;;2.45;2.00;;;;;;;7.45;100.00;100955.59;4994437;28;20106;-86
2022/11/28 09:54:14;;;;;;;2.25;1.98;;;;;;;7.49;100.00;100957.28;4994706;28;20046;-86
2022/11/28 09:56:39;;;;;;;1.70;1.60;;;;;;;7.50;100.00;100961.59;4994084;28;20034;-86
2022/11/28 09:59:21;;;;;;;1.90;1.80;;;;;;;7.51;100.00;100964.19;4994237;28;20077;-86
2022/11/28 10:01:59;;;;;;;2.00;1.80;;;;;;;7.54;100.00;100956.44;4993784;28;20471;-86
2022/11/28 10:05:09;;;;;;;2.05;1.80;;;;;;;7.56;100.00;100956.44;4994501;28;20027;-86
2022/11/28 10:07:41;;;;;;;2.05;1.85;;;;;;;7.58;100.00;100952.16;4994214;28;20027;-86
2022/11/28 10:10:33;;;;;;;2.90;2.10;;;;;;;7.60;100.00;100957.31;4993739;28;20030;-85
2022/11/28 10:13:12;;;;;;;2.05;1.83;;;;;;;7.60;100.00;100950.41;4994441;28;20102;-85
2022/11/28 10:16:10;;;;;;;2.17;1.98;;;;;;;7.66;100.00;100949.53;4993341;28;20117;-86
2022/11/28 10:18:38;;;;;;;3.05;2.50;;;;;;;7.68;100.00;100950.38;4994486;28;20411;-85
2022/11/28 10:21:16;;;;;;;2.40;2.10;;;;;;;7.70;100.00;100953.84;4994082;28;20026;-84
2022/11/28 10:23:45;;;;;;;2.25;2.05;;;;;;;7.74;100.00;100952.97;4993138;28;20034;-86
2022/11/28 10:26:20;;;;;;;2.83;2.10;;;;;;;7.76;100.00;100951.25;4993618;28;20106;-84
2022/11/28 10:28:50;;;;;;;2.10;1.90;;;;;;;7.79;100.00;100958.13;4994016;28;20510;-85
2022/11/28 10:31:35;;;;;;;3.33;2.25;;;;;;;7.80;100.00;100958.13;4992918;28;20446;-85
2022/11/28 10:34:27;;;;;;;2.70;2.30;;;;;;;7.82;100.00;100958.97;4993904;28;20038;-85
2022/11/28 10:37:24;;;;;;;2.63;2.40;;;;;;;7.85;100.00;100955.53;4992551;28;20045;-84
2022/11/28 10:39:49;;;;;;;4.60;3.10;;;;;;;7.86;100.00;100957.25;4993747;28;20050;-84
2022/11/28 10:42:36;;;;;;;4.50;2.87;;;;;;;7.87;100.00;100957.28;4993011;28;20121;-84
2022/11/28 10:45:26;;;;;;;4.38;2.90;;;;;;;7.89;100.00;100960.69;4973766;28;20395;-85
2022/11/28 10:48:23;;;;;;;3.03;2.40;;;;;;;7.95;100.00;100954.63;4974629;28;20027;-84
2022/11/28 10:51:00;;;;;;;2.83;2.20;;;;;;;7.96;100.00;100950.34;4981939;28;20026;-84
2022/11/28 10:53:39;;;;;;;3.97;2.40;;;;;;;7.99;100.00;100961.53;4992754;28;20030;-84
2022/11/28 10:56:16;;;;;;;2.80;2.20;;;;;;;7.99;100.00;100961.53;4993577;28;20105;-86
2022/11/28 10:59:01;;;;;;;2.83;2.33;;;;;;;8.02;100.00;100963.25;4992900;28;20475;-83
2022/11/28 11:01:36;;;;;;;2.92;2.33;;;;;;;8.03;100.00;100963.25;4992854;28;20027;-83
2022/11/28 11:04:01;;;;;;;3.75;2.53;;;;;;;8.03;100.00;100959.78;4993889;28;20530;-85
2022/11/28 11:06:27;;;;;;;2.70;2.20;;;;;;;8.06;100.00;100971.84;4993223;28;20034;-86
2022/11/28 11:08:52;;;;;;;2.95;2.40;;;;;;;8.07;100.00;100968.38;4993622;28;20050;-86
2022/11/28 11:11:29;;;;;;;2.60;2.10;;;;;;;8.07;100.00;100964.09;4993126;28;20027;-83
2022/11/28 11:13:57;;;;;;;2.30;2.00;;;;;;;8.08;100.00;100968.41;4992864;28;20106;-83
2022/11/28 11:16:22;;;;;;;2.38;2.13;;;;;;;8.10;100.00;100961.50;4993168;28;20045;-82
2022/11/28 11:18:53;;;;;;;3.40;2.43;;;;;;;8.11;100.00;100957.19;4992557;28;20097;-83
2022/11/28 11:21:26;;;;;;;4.00;2.67;;;;;;;8.11;100.00;100949.44;4993278;28;20411;-82
2022/11/28 11:24:17;;;;;;;4.95;3.05;;;;;;;8.15;100.00;100954.59;4993302;28;20054;-83
2022/11/28 11:26:45;;;;;;;4.82;2.97;;;;;;;8.18;100.00;100951.13;4992383;28;20142;-83
2022/11/28 11:29:29;;;;;;;8.18;4.35;;;;;;;8.21;100.00;100960.63;4992737;28;20038;-83
2022/11/28 11:31:57;;;;;;;8.15;4.25;;;;;;;8.21;100.00;100965.78;4993251;28;20041;-83
2022/11/28 11:34:23;;;;;;;10.02;4.90;;;;;;;8.21;100.00;100964.03;4992408;28;20322;-83
2022/11/28 11:36:49;;;;;;;7.40;4.27;;;;;;;8.22;100.00;100962.34;4992656;28;20060;-83
2022/11/28 11:39:21;;;;;;;9.70;4.57;;;;;;;8.23;100.00;100962.31;4992613;28;20484;-82
2022/11/28 11:41:49;;;;;;;8.45;4.38;;;;;;;8.22;100.00;100955.44;4992049;28;20038;-82